sensor_id;sensor_type;location;lat;lon;timestamp;temperature;humidity
18597;DHT22;9428;50.950;6.912;2022-09-16T00:02:37;14.60;99.90
18597;DHT22;9428;50.950;6.912;2022-09-16T00:05:26;14.60;99.90
18597;DHT22;9428;50.950;6.912;2022-09-16T00:08:13;14.50;99.90
18597;DHT22;9428;50.950;6.912;2022-09-16T00:11:01;14.70;99.90
18597;DHT22;9428;50.950;6.912;2022-09-16T00:13:48;14.50;99.90
18597;DHT22;9428;50.950;6.912;2022-09-16T00:16:36;14.80;99.90
18597;DHT22;9428;50.950;6.912;2022-09-16T00:19:23;14.50;99.90
18597;DHT22;9428;50.950;6.912;2022-09-16T00:22:12;14.40;99.90
18597;DHT22;9428;50.950;6.912;2022-09-16T00:24:59;14.70;99.90
18597;DHT22;9428;50.950;6.912;2022-09-16T00:27:47;14.50;99.90
18597;DHT22;9428;50.950;6.912;2022-09-16T00:30:34;14.50;99.90
18597;DHT22;9428;50.950;6.912;2022-09-16T00:33:21;14.50;99.90
18597;DHT22;9428;50.950;6.912;2022-09-16T00:36:10;14.40;99.90
18597;DHT22;9428;50.950;6.912;2022-09-16T00:38:59;14.50;99.90
18597;DHT22;9428;50.950;6.912;2022-09-16T00:41:46;14.40;99.90
18597;DHT22;9428;50.950;6.912;2022-09-16T00:44:55;14.40;99.90
18597;DHT22;9428;50.950;6.912;2022-09-16T00:47:46;14.60;99.90
18597;DHT22;9428;50.950;6.912;2022-09-16T00:50:36;14.30;99.90
18597;DHT22;9428;50.950;6.912;2022-09-16T00:53:28;14.30;99.90
18597;DHT22;9428;50.950;6.912;2022-09-16T00:56:18;14.30;99.90
18597;DHT22;9428;50.950;6.912;2022-09-16T00:59:11;14.20;99.90
18597;DHT22;9428;50.950;6.912;2022-09-16T01:02:06;14.60;99.90
18597;DHT22;9428;50.950;6.912;2022-09-16T01:04:58;14.20;99.90
18597;DHT22;9428;50.950;6.912;2022-09-16T01:07:47;14.50;99.90
18597;DHT22;9428;50.950;6.912;2022-09-16T01:10:35;14.40;99.90
18597;DHT22;9428;50.950;6.912;2022-09-16T01:13:23;14.70;99.90
18597;DHT22;9428;50.950;6.912;2022-09-16T01:16:13;14.30;99.90
18597;DHT22;9428;50.950;6.912;2022-09-16T01:19:08;14.40;99.90
18597;DHT22;9428;50.950;6.912;2022-09-16T01:22:08;14.40;99.90
18597;DHT22;9428;50.950;6.912;2022-09-16T01:25:05;14.30;99.90
18597;DHT22;9428;50.950;6.912;2022-09-16T01:28:17;14.20;99.90
18597;DHT22;9428;50.950;6.912;2022-09-16T01:31:11;14.40;99.90
18597;DHT22;9428;50.950;6.912;2022-09-16T01:34:06;14.60;99.90
18597;DHT22;9428;50.950;6.912;2022-09-16T01:37:02;14.40;99.90
18597;DHT22;9428;50.950;6.912;2022-09-16T01:40:02;14.30;99.90
18597;DHT22;9428;50.950;6.912;2022-09-16T01:42:58;14.40;99.90
18597;DHT22;9428;50.950;6.912;2022-09-16T01:45:53;14.40;99.90
18597;DHT22;9428;50.950;6.912;2022-09-16T01:48:45;14.40;99.90
18597;DHT22;9428;50.950;6.912;2022-09-16T01:51:41;14.70;99.90
18597;DHT22;9428;50.950;6.912;2022-09-16T01:54:33;14.40;99.90
18597;DHT22;9428;50.950;6.912;2022-09-16T01:57:29;14.40;99.90
18597;DHT22;9428;50.950;6.912;2022-09-16T02:00:20;14.50;99.90
18597;DHT22;9428;50.950;6.912;2022-09-16T02:03:09;14.50;99.90
18597;DHT22;9428;50.950;6.912;2022-09-16T02:06:02;14.40;99.90
18597;DHT22;9428;50.950;6.912;2022-09-16T02:08:53;14.40;99.90
18597;DHT22;9428;50.950;6.912;2022-09-16T02:11:42;14.30;99.90
18597;DHT22;9428;50.950;6.912;2022-09-16T02:14:34;14.50;99.90
18597;DHT22;9428;50.950;6.912;2022-09-16T02:17:23;14.40;99.90
18597;DHT22;9428;50.950;6.912;2022-09-16T02:20:14;14.30;99.90
18597;DHT22;9428;50.950;6.912;2022-09-16T02:23:08;14.30;99.90
18597;DHT22;9428;50.950;6.912;2022-09-16T02:25:58;14.40;99.90
18597;DHT22;9428;50.950;6.912;2022-09-16T02:28:49;14.30;99.90
18597;DHT22;9428;50.950;6.912;2022-09-16T02:31:37;14.40;99.90
18597;DHT22;9428;50.950;6.912;2022-09-16T02:34:28;14.40;99.90
18597;DHT22;9428;50.950;6.912;2022-09-16T02:37:18;14.30;99.90
18597;DHT22;9428;50.950;6.912;2022-09-16T02:40:11;14.70;99.90
18597;DHT22;9428;50.950;6.912;2022-09-16T02:43:02;14.30;99.90
18597;DHT22;9428;50.950;6.912;2022-09-16T02:45:57;14.40;99.90
18597;DHT22;9428;50.950;6.912;2022-09-16T02:48:53;14.70;99.90
18597;DHT22;9428;50.950;6.912;2022-09-16T02:51:49;14.30;99.90
18597;DHT22;9428;50.950;6.912;2022-09-16T02:54:46;14.40;99.90
18597;DHT22;9428;50.950;6.912;2022-09-16T02:57:37;14.70;99.90
18597;DHT22;9428;50.950;6.912;2022-09-16T03:00:24;14.40;99.90
18597;DHT22;9428;50.950;6.912;2022-09-16T03:03:13;14.60;99.90
18597;DHT22;9428;50.950;6.912;2022-09-16T03:06:13;14.30;99.90
18597;DHT22;9428;50.950;6.912;2022-09-16T03:09:03;14.20;99.90
18597;DHT22;9428;50.950;6.912;2022-09-16T03:12:26;14.70;99.90
18597;DHT22;9428;50.950;6.912;2022-09-16T03:15:33;14.10;99.90
18597;DHT22;9428;50.950;6.912;2022-09-16T03:18:46;14.20;99.90
18597;DHT22;9428;50.950;6.912;2022-09-16T03:21:44;14.00;99.90
18597;DHT22;9428;50.950;6.912;2022-09-16T03:24:41;14.20;99.90
18597;DHT22;9428;50.950;6.912;2022-09-16T03:27:37;14.10;99.90
18597;DHT22;9428;50.950;6.912;2022-09-16T03:30:30;14.20;99.90
18597;DHT22;9428;50.950;6.912;2022-09-16T03:33:24;14.20;99.90
18597;DHT22;9428;50.950;6.912;2022-09-16T03:36:15;14.20;99.90
18597;DHT22;9428;50.950;6.912;2022-09-16T03:39:05;14.10;99.90
18597;DHT22;9428;50.950;6.912;2022-09-16T03:41:52;14.20;99.90
18597;DHT22;9428;50.950;6.912;2022-09-16T03:44:40;14.00;99.90
18597;DHT22;9428;50.950;6.912;2022-09-16T03:47:27;14.10;99.90
18597;DHT22;9428;50.950;6.912;2022-09-16T03:50:17;14.10;99.90
18597;DHT22;9428;50.950;6.912;2022-09-16T03:53:05;14.00;99.90
18597;DHT22;9428;50.950;6.912;2022-09-16T03:55:52;14.10;99.90
18597;DHT22;9428;50.950;6.912;2022-09-16T03:58:39;14.00;99.90
18597;DHT22;9428;50.950;6.912;2022-09-16T04:01:26;14.10;99.90
18597;DHT22;9428;50.950;6.912;2022-09-16T04:04:13;14.50;99.90
18597;DHT22;9428;50.950;6.912;2022-09-16T04:07:02;14.00;99.90
18597;DHT22;9428;50.950;6.912;2022-09-16T04:09:49;14.00;99.90
18597;DHT22;9428;50.950;6.912;2022-09-16T04:12:36;14.10;99.90
18597;DHT22;9428;50.950;6.912;2022-09-16T04:15:24;14.30;99.90
18597;DHT22;9428;50.950;6.912;2022-09-16T04:18:11;13.90;99.90
18597;DHT22;9428;50.950;6.912;2022-09-16T04:20:58;13.90;99.90
18597;DHT22;9428;50.950;6.912;2022-09-16T04:23:47;13.90;99.90
18597;DHT22;9428;50.950;6.912;2022-09-16T04:26:35;14.10;99.90
18597;DHT22;9428;50.950;6.912;2022-09-16T04:29:22;13.90;99.90
18597;DHT22;9428;50.950;6.912;2022-09-16T04:32:09;13.80;99.90
18597;DHT22;9428;50.950;6.912;2022-09-16T04:34:56;13.80;99.90
18597;DHT22;9428;50.950;6.912;2022-09-16T04:37:44;13.80;99.90
18597;DHT22;9428;50.950;6.912;2022-09-16T04:40:32;13.80;99.90
18597;DHT22;9428;50.950;6.912;2022-09-16T04:43:19;13.70;99.90
18597;DHT22;9428;50.950;6.912;2022-09-16T04:46:07;13.80;99.90
18597;DHT22;9428;50.950;6.912;2022-09-16T04:48:55;14.00;99.90
18597;DHT22;9428;50.950;6.912;2022-09-16T04:51:42;14.30;99.90
18597;DHT22;9428;50.950;6.912;2022-09-16T04:54:30;13.70;99.90
18597;DHT22;9428;50.950;6.912;2022-09-16T04:57:19;13.80;99.90
18597;DHT22;9428;50.950;6.912;2022-09-16T05:00:07;14.00;99.90
18597;DHT22;9428;50.950;6.912;2022-09-16T05:02:55;14.00;99.90
18597;DHT22;9428;50.950;6.912;2022-09-16T05:05:42;13.90;99.90
18597;DHT22;9428;50.950;6.912;2022-09-16T05:08:29;13.90;99.90
18597;DHT22;9428;50.950;6.912;2022-09-16T05:11:19;13.90;99.90
18597;DHT22;9428;50.950;6.912;2022-09-16T05:14:12;14.20;99.90
18597;DHT22;9428;50.950;6.912;2022-09-16T05:17:00;13.70;99.90
18597;DHT22;9428;50.950;6.912;2022-09-16T05:19:47;13.80;99.90
18597;DHT22;9428;50.950;6.912;2022-09-16T05:22:34;14.00;99.90
18597;DHT22;9428;50.950;6.912;2022-09-16T05:25:22;13.70;99.90
18597;DHT22;9428;50.950;6.912;2022-09-16T05:28:09;13.70;99.90
18597;DHT22;9428;50.950;6.912;2022-09-16T05:31:08;13.90;99.90
18597;DHT22;9428;50.950;6.912;2022-09-16T05:33:57;13.90;99.90
18597;DHT22;9428;50.950;6.912;2022-09-16T05:36:45;13.90;99.90
18597;DHT22;9428;50.950;6.912;2022-09-16T05:39:33;14.00;99.90
18597;DHT22;9428;50.950;6.912;2022-09-16T05:42:20;14.00;99.90
18597;DHT22;9428;50.950;6.912;2022-09-16T05:45:08;14.10;99.90
18597;DHT22;9428;50.950;6.912;2022-09-16T05:47:57;14.00;99.90
18597;DHT22;9428;50.950;6.912;2022-09-16T05:50:50;14.00;99.90
18597;DHT22;9428;50.950;6.912;2022-09-16T05:53:38;14.20;99.90
18597;DHT22;9428;50.950;6.912;2022-09-16T05:56:26;13.90;99.90
18597;DHT22;9428;50.950;6.912;2022-09-16T05:59:14;14.20;99.90
18597;DHT22;9428;50.950;6.912;2022-09-16T06:02:02;14.00;99.90
18597;DHT22;9428;50.950;6.912;2022-09-16T06:04:51;14.00;99.90
18597;DHT22;9428;50.950;6.912;2022-09-16T06:07:38;14.00;99.90
18597;DHT22;9428;50.950;6.912;2022-09-16T06:10:25;14.10;99.90
18597;DHT22;9428;50.950;6.912;2022-09-16T06:13:12;14.00;99.90
18597;DHT22;9428;50.950;6.912;2022-09-16T06:16:00;14.40;99.90
18597;DHT22;9428;50.950;6.912;2022-09-16T06:18:47;14.20;99.90
18597;DHT22;9428;50.950;6.912;2022-09-16T06:21:36;14.20;99.90
18597;DHT22;9428;50.950;6.912;2022-09-16T06:24:24;14.30;99.90
18597;DHT22;9428;50.950;6.912;2022-09-16T06:27:11;14.20;99.90
18597;DHT22;9428;50.950;6.912;2022-09-16T06:29:58;14.10;99.90
18597;DHT22;9428;50.950;6.912;2022-09-16T06:32:45;14.10;99.90
18597;DHT22;9428;50.950;6.912;2022-09-16T06:35:33;14.10;99.90
18597;DHT22;9428;50.950;6.912;2022-09-16T06:38:22;14.10;99.90
18597;DHT22;9428;50.950;6.912;2022-09-16T06:41:11;14.00;99.90
18597;DHT22;9428;50.950;6.912;2022-09-16T06:43:59;14.30;99.90
18597;DHT22;9428;50.950;6.912;2022-09-16T06:46:46;14.90;99.90
18597;DHT22;9428;50.950;6.912;2022-09-16T06:49:33;14.40;99.90
18597;DHT22;9428;50.950;6.912;2022-09-16T06:52:21;14.30;99.90
18597;DHT22;9428;50.950;6.912;2022-09-16T06:55:09;14.50;99.90
18597;DHT22;9428;50.950;6.912;2022-09-16T06:57:56;14.30;99.90
18597;DHT22;9428;50.950;6.912;2022-09-16T07:00:43;14.40;99.90
18597;DHT22;9428;50.950;6.912;2022-09-16T07:03:31;14.30;99.90
18597;DHT22;9428;50.950;6.912;2022-09-16T07:06:19;14.30;99.90
18597;DHT22;9428;50.950;6.912;2022-09-16T07:09:07;14.80;99.90
18597;DHT22;9428;50.950;6.912;2022-09-16T07:11:56;14.50;99.90
18597;DHT22;9428;50.950;6.912;2022-09-16T07:14:44;15.00;99.90
18597;DHT22;9428;50.950;6.912;2022-09-16T07:17:31;14.70;99.90
18597;DHT22;9428;50.950;6.912;2022-09-16T07:20:18;14.60;99.90
18597;DHT22;9428;50.950;6.912;2022-09-16T07:23:05;14.70;99.90
18597;DHT22;9428;50.950;6.912;2022-09-16T07:25:59;14.80;99.90
18597;DHT22;9428;50.950;6.912;2022-09-16T07:28:48;14.80;99.90
18597;DHT22;9428;50.950;6.912;2022-09-16T07:31:37;14.80;99.90
18597;DHT22;9428;50.950;6.912;2022-09-16T07:34:25;14.80;99.90
18597;DHT22;9428;50.950;6.912;2022-09-16T07:37:12;14.70;99.90
18597;DHT22;9428;50.950;6.912;2022-09-16T07:39:59;14.80;99.90
18597;DHT22;9428;50.950;6.912;2022-09-16T07:42:47;14.90;99.90
18597;DHT22;9428;50.950;6.912;2022-09-16T07:45:35;14.90;99.90
18597;DHT22;9428;50.950;6.912;2022-09-16T07:48:23;15.00;99.90
18597;DHT22;9428;50.950;6.912;2022-09-16T07:51:12;14.90;99.90
18597;DHT22;9428;50.950;6.912;2022-09-16T07:54:01;15.10;99.90
18597;DHT22;9428;50.950;6.912;2022-09-16T07:56:49;15.10;99.90
18597;DHT22;9428;50.950;6.912;2022-09-16T07:59:36;15.20;99.90
18597;DHT22;9428;50.950;6.912;2022-09-16T08:02:25;15.30;99.90
18597;DHT22;9428;50.950;6.912;2022-09-16T08:05:12;15.20;99.90
18597;DHT22;9428;50.950;6.912;2022-09-16T08:08:01;15.10;99.90
18597;DHT22;9428;50.950;6.912;2022-09-16T08:10:52;15.10;99.90
18597;DHT22;9428;50.950;6.912;2022-09-16T08:13:41;15.00;99.90
18597;DHT22;9428;50.950;6.912;2022-09-16T08:16:29;15.20;99.90
18597;DHT22;9428;50.950;6.912;2022-09-16T08:19:18;15.10;99.90
18597;DHT22;9428;50.950;6.912;2022-09-16T08:22:05;15.20;99.90
18597;DHT22;9428;50.950;6.912;2022-09-16T08:24:52;15.20;99.90
18597;DHT22;9428;50.950;6.912;2022-09-16T08:27:40;15.50;99.90
18597;DHT22;9428;50.950;6.912;2022-09-16T08:30:27;15.50;99.90
18597;DHT22;9428;50.950;6.912;2022-09-16T08:33:14;15.60;99.90
18597;DHT22;9428;50.950;6.912;2022-09-16T08:36:11;15.40;99.90
18597;DHT22;9428;50.950;6.912;2022-09-16T08:39:00;15.40;99.90
18597;DHT22;9428;50.950;6.912;2022-09-16T08:45:19;15.30;99.90
18597;DHT22;9428;50.950;6.912;2022-09-16T08:48:24;15.60;99.90
18597;DHT22;9428;50.950;6.912;2022-09-16T08:51:17;15.40;99.90
18597;DHT22;9428;50.950;6.912;2022-09-16T08:54:09;15.30;99.90
18597;DHT22;9428;50.950;6.912;2022-09-16T08:56:59;15.30;99.90
18597;DHT22;9428;50.950;6.912;2022-09-16T08:59:51;15.30;99.90
18597;DHT22;9428;50.950;6.912;2022-09-16T09:02:41;15.30;99.90
18597;DHT22;9428;50.950;6.912;2022-09-16T09:05:41;15.30;99.90
18597;DHT22;9428;50.950;6.912;2022-09-16T09:08:42;15.30;99.90
18597;DHT22;9428;50.950;6.912;2022-09-16T09:11:37;15.30;99.90
18597;DHT22;9428;50.950;6.912;2022-09-16T09:14:34;15.30;99.90
18597;DHT22;9428;50.950;6.912;2022-09-16T09:17:31;15.50;99.90
18597;DHT22;9428;50.950;6.912;2022-09-16T09:20:29;15.70;99.90
18597;DHT22;9428;50.950;6.912;2022-09-16T09:23:33;15.70;99.90
18597;DHT22;9428;50.950;6.912;2022-09-16T09:26:28;15.80;99.90
18597;DHT22;9428;50.950;6.912;2022-09-16T09:29:39;15.70;99.90
18597;DHT22;9428;50.950;6.912;2022-09-16T09:32:40;15.80;99.90
18597;DHT22;9428;50.950;6.912;2022-09-16T09:35:42;15.90;99.90
18597;DHT22;9428;50.950;6.912;2022-09-16T09:38:46;15.90;99.90
18597;DHT22;9428;50.950;6.912;2022-09-16T09:41:41;16.10;99.90
18597;DHT22;9428;50.950;6.912;2022-09-16T09:44:40;16.10;99.90
18597;DHT22;9428;50.950;6.912;2022-09-16T09:47:32;16.00;99.90
18597;DHT22;9428;50.950;6.912;2022-09-16T09:50:24;16.00;99.90
18597;DHT22;9428;50.950;6.912;2022-09-16T09:53:18;16.00;99.90
18597;DHT22;9428;50.950;6.912;2022-09-16T09:56:14;15.80;99.90
18597;DHT22;9428;50.950;6.912;2022-09-16T09:59:24;15.60;99.90
18597;DHT22;9428;50.950;6.912;2022-09-16T10:02:16;15.50;99.90
18597;DHT22;9428;50.950;6.912;2022-09-16T10:05:04;15.50;99.90
18597;DHT22;9428;50.950;6.912;2022-09-16T10:07:54;15.70;99.90
18597;DHT22;9428;50.950;6.912;2022-09-16T10:10:47;15.80;99.90
18597;DHT22;9428;50.950;6.912;2022-09-16T10:13:46;15.90;99.90
18597;DHT22;9428;50.950;6.912;2022-09-16T10:16:36;16.10;99.90
18597;DHT22;9428;50.950;6.912;2022-09-16T10:19:25;16.30;99.90
18597;DHT22;9428;50.950;6.912;2022-09-16T10:22:20;16.30;99.90
18597;DHT22;9428;50.950;6.912;2022-09-16T10:25:22;16.00;99.90
18597;DHT22;9428;50.950;6.912;2022-09-16T10:28:19;16.00;99.90
18597;DHT22;9428;50.950;6.912;2022-09-16T10:31:07;15.90;99.90
18597;DHT22;9428;50.950;6.912;2022-09-16T10:33:56;15.90;99.90
18597;DHT22;9428;50.950;6.912;2022-09-16T10:36:45;16.00;99.90
18597;DHT22;9428;50.950;6.912;2022-09-16T10:39:32;16.10;99.90
18597;DHT22;9428;50.950;6.912;2022-09-16T10:42:21;16.10;99.90
18597;DHT22;9428;50.950;6.912;2022-09-16T10:45:14;16.10;99.90
18597;DHT22;9428;50.950;6.912;2022-09-16T10:48:06;16.00;99.90
18597;DHT22;9428;50.950;6.912;2022-09-16T10:51:00;16.10;99.90
18597;DHT22;9428;50.950;6.912;2022-09-16T10:53:51;16.30;99.90
18597;DHT22;9428;50.950;6.912;2022-09-16T10:56:47;16.30;99.90
18597;DHT22;9428;50.950;6.912;2022-09-16T10:59:34;16.50;99.90
18597;DHT22;9428;50.950;6.912;2022-09-16T11:02:36;16.60;99.90
18597;DHT22;9428;50.950;6.912;2022-09-16T11:05:32;16.50;99.90
18597;DHT22;9428;50.950;6.912;2022-09-16T11:08:33;16.30;99.90
18597;DHT22;9428;50.950;6.912;2022-09-16T11:11:36;16.20;99.90
18597;DHT22;9428;50.950;6.912;2022-09-16T11:14:35;16.10;99.90
18597;DHT22;9428;50.950;6.912;2022-09-16T11:17:33;16.70;99.90
18597;DHT22;9428;50.950;6.912;2022-09-16T11:20:41;15.90;99.90
18597;DHT22;9428;50.950;6.912;2022-09-16T11:23:41;15.90;99.90
18597;DHT22;9428;50.950;6.912;2022-09-16T11:26:38;16.00;99.90
18597;DHT22;9428;50.950;6.912;2022-09-16T11:29:53;16.10;99.90
18597;DHT22;9428;50.950;6.912;2022-09-16T11:33:01;16.00;99.90
18597;DHT22;9428;50.950;6.912;2022-09-16T11:36:16;16.70;99.90
18597;DHT22;9428;50.950;6.912;2022-09-16T11:39:17;16.10;99.90
18597;DHT22;9428;50.950;6.912;2022-09-16T11:42:15;16.20;99.90
18597;DHT22;9428;50.950;6.912;2022-09-16T11:45:19;16.50;99.90
18597;DHT22;9428;50.950;6.912;2022-09-16T11:48:35;16.30;99.90
18597;DHT22;9428;50.950;6.912;2022-09-16T11:51:34;16.40;99.90
18597;DHT22;9428;50.950;6.912;2022-09-16T11:54:36;16.60;99.90
18597;DHT22;9428;50.950;6.912;2022-09-16T11:57:30;16.80;99.90
18597;DHT22;9428;50.950;6.912;2022-09-16T12:00:18;17.20;99.90
18597;DHT22;9428;50.950;6.912;2022-09-16T12:03:10;16.70;99.90
18597;DHT22;9428;50.950;6.912;2022-09-16T12:06:04;17.20;99.90
18597;DHT22;9428;50.950;6.912;2022-09-16T12:08:59;16.50;99.90
18597;DHT22;9428;50.950;6.912;2022-09-16T12:11:51;16.10;99.90
18597;DHT22;9428;50.950;6.912;2022-09-16T12:14:42;16.00;99.90
18597;DHT22;9428;50.950;6.912;2022-09-16T12:17:33;16.90;99.90
18597;DHT22;9428;50.950;6.912;2022-09-16T12:20:24;17.00;99.90
18597;DHT22;9428;50.950;6.912;2022-09-16T12:23:16;16.50;99.90
18597;DHT22;9428;50.950;6.912;2022-09-16T12:26:07;16.40;99.90
18597;DHT22;9428;50.950;6.912;2022-09-16T12:29:02;16.60;99.90
18597;DHT22;9428;50.950;6.912;2022-09-16T12:31:53;16.10;99.90
18597;DHT22;9428;50.950;6.912;2022-09-16T12:34:45;15.40;99.90
18597;DHT22;9428;50.950;6.912;2022-09-16T12:37:38;14.70;99.90
18597;DHT22;9428;50.950;6.912;2022-09-16T12:40:27;13.90;99.90
18597;DHT22;9428;50.950;6.912;2022-09-16T12:50:37;13.60;99.90
18597;DHT22;9428;50.950;6.912;2022-09-16T12:53:49;13.60;99.90
18597;DHT22;9428;50.950;6.912;2022-09-16T12:57:04;13.70;99.90
18597;DHT22;9428;50.950;6.912;2022-09-16T13:00:11;14.00;99.90
18597;DHT22;9428;50.950;6.912;2022-09-16T13:03:06;14.00;99.90
18597;DHT22;9428;50.950;6.912;2022-09-16T13:06:05;14.20;99.90
18597;DHT22;9428;50.950;6.912;2022-09-16T13:08:54;14.00;99.90
18597;DHT22;9428;50.950;6.912;2022-09-16T13:11:50;14.20;99.90
18597;DHT22;9428;50.950;6.912;2022-09-16T13:14:43;14.40;99.90
18597;DHT22;9428;50.950;6.912;2022-09-16T13:17:33;14.50;99.90
18597;DHT22;9428;50.950;6.912;2022-09-16T13:20:27;14.70;99.90
18597;DHT22;9428;50.950;6.912;2022-09-16T13:23:20;14.30;99.90
18597;DHT22;9428;50.950;6.912;2022-09-16T13:26:09;14.20;99.90
18597;DHT22;9428;50.950;6.912;2022-09-16T13:28:56;14.20;99.90
18597;DHT22;9428;50.950;6.912;2022-09-16T13:31:46;14.50;99.90
18597;DHT22;9428;50.950;6.912;2022-09-16T13:34:34;14.30;99.90
18597;DHT22;9428;50.950;6.912;2022-09-16T13:37:25;14.20;99.90
18597;DHT22;9428;50.950;6.912;2022-09-16T13:40:17;14.10;99.90
18597;DHT22;9428;50.950;6.912;2022-09-16T13:43:12;14.20;99.90
18597;DHT22;9428;50.950;6.912;2022-09-16T13:46:03;14.10;99.90
18597;DHT22;9428;50.950;6.912;2022-09-16T13:48:55;14.40;99.90
18597;DHT22;9428;50.950;6.912;2022-09-16T13:51:45;14.50;99.90
18597;DHT22;9428;50.950;6.912;2022-09-16T13:54:40;14.40;99.90
18597;DHT22;9428;50.950;6.912;2022-09-16T13:57:49;15.00;99.90
18597;DHT22;9428;50.950;6.912;2022-09-16T14:00:44;14.50;99.90
18597;DHT22;9428;50.950;6.912;2022-09-16T14:03:43;14.50;99.90
18597;DHT22;9428;50.950;6.912;2022-09-16T14:06:47;14.60;99.90
18597;DHT22;9428;50.950;6.912;2022-09-16T14:09:57;14.50;99.90
18597;DHT22;9428;50.950;6.912;2022-09-16T14:12:53;14.60;99.90
18597;DHT22;9428;50.950;6.912;2022-09-16T14:15:46;14.70;99.90
18597;DHT22;9428;50.950;6.912;2022-09-16T14:18:34;14.40;99.90
18597;DHT22;9428;50.950;6.912;2022-09-16T14:21:22;14.60;99.90
18597;DHT22;9428;50.950;6.912;2022-09-16T14:24:15;14.60;99.90
18597;DHT22;9428;50.950;6.912;2022-09-16T14:27:17;14.80;99.90
18597;DHT22;9428;50.950;6.912;2022-09-16T14:30:12;14.60;99.90
18597;DHT22;9428;50.950;6.912;2022-09-16T14:33:02;14.90;99.90
18597;DHT22;9428;50.950;6.912;2022-09-16T14:35:52;14.90;99.90
18597;DHT22;9428;50.950;6.912;2022-09-16T14:38:42;14.80;99.90
18597;DHT22;9428;50.950;6.912;2022-09-16T14:41:34;14.90;99.90
18597;DHT22;9428;50.950;6.912;2022-09-16T14:44:26;14.90;99.90
18597;DHT22;9428;50.950;6.912;2022-09-16T14:47:20;15.00;99.90
18597;DHT22;9428;50.950;6.912;2022-09-16T14:50:12;15.00;99.90
18597;DHT22;9428;50.950;6.912;2022-09-16T14:53:03;14.80;99.90
18597;DHT22;9428;50.950;6.912;2022-09-16T14:55:50;14.90;99.90
18597;DHT22;9428;50.950;6.912;2022-09-16T14:58:37;14.90;99.90
18597;DHT22;9428;50.950;6.912;2022-09-16T15:01:26;14.90;99.90
18597;DHT22;9428;50.950;6.912;2022-09-16T15:04:18;14.80;99.90
18597;DHT22;9428;50.950;6.912;2022-09-16T15:07:13;15.00;99.90
18597;DHT22;9428;50.950;6.912;2022-09-16T15:10:06;15.00;99.90
18597;DHT22;9428;50.950;6.912;2022-09-16T15:12:56;15.10;99.90
18597;DHT22;9428;50.950;6.912;2022-09-16T15:15:46;15.10;99.90
18597;DHT22;9428;50.950;6.912;2022-09-16T15:18:36;15.00;99.90
18597;DHT22;9428;50.950;6.912;2022-09-16T15:21:26;14.90;99.90
18597;DHT22;9428;50.950;6.912;2022-09-16T15:24:18;14.80;99.90
18597;DHT22;9428;50.950;6.912;2022-09-16T15:27:07;15.30;99.90
18597;DHT22;9428;50.950;6.912;2022-09-16T15:29:57;14.70;99.90
18597;DHT22;9428;50.950;6.912;2022-09-16T15:32:44;14.70;99.90
18597;DHT22;9428;50.950;6.912;2022-09-16T15:35:33;14.70;99.90
18597;DHT22;9428;50.950;6.912;2022-09-16T15:38:21;14.70;99.90
18597;DHT22;9428;50.950;6.912;2022-09-16T15:41:11;14.70;99.90
18597;DHT22;9428;50.950;6.912;2022-09-16T15:43:59;15.20;99.90
18597;DHT22;9428;50.950;6.912;2022-09-16T15:46:47;14.60;99.90
18597;DHT22;9428;50.950;6.912;2022-09-16T15:49:38;14.90;99.90
18597;DHT22;9428;50.950;6.912;2022-09-16T15:52:27;14.50;99.90
18597;DHT22;9428;50.950;6.912;2022-09-16T15:55:25;14.50;99.90
18597;DHT22;9428;50.950;6.912;2022-09-16T15:58:17;14.30;99.90
18597;DHT22;9428;50.950;6.912;2022-09-16T16:01:10;14.30;99.90
18597;DHT22;9428;50.950;6.912;2022-09-16T16:03:59;14.20;99.90
18597;DHT22;9428;50.950;6.912;2022-09-16T16:06:50;14.10;99.90
18597;DHT22;9428;50.950;6.912;2022-09-16T16:09:42;14.30;99.90
18597;DHT22;9428;50.950;6.912;2022-09-16T16:12:29;14.20;99.90
18597;DHT22;9428;50.950;6.912;2022-09-16T16:15:19;14.10;99.90
18597;DHT22;9428;50.950;6.912;2022-09-16T16:18:07;14.20;99.90
18597;DHT22;9428;50.950;6.912;2022-09-16T16:20:55;14.60;99.90
18597;DHT22;9428;50.950;6.912;2022-09-16T16:23:42;14.20;99.90
18597;DHT22;9428;50.950;6.912;2022-09-16T16:26:31;14.30;99.90
18597;DHT22;9428;50.950;6.912;2022-09-16T16:29:18;14.20;99.90
18597;DHT22;9428;50.950;6.912;2022-09-16T16:32:07;14.10;99.90
18597;DHT22;9428;50.950;6.912;2022-09-16T16:34:55;14.40;99.90
18597;DHT22;9428;50.950;6.912;2022-09-16T16:37:43;13.90;99.90
18597;DHT22;9428;50.950;6.912;2022-09-16T16:40:30;13.90;99.90
18597;DHT22;9428;50.950;6.912;2022-09-16T16:43:18;13.80;99.90
18597;DHT22;9428;50.950;6.912;2022-09-16T16:46:05;13.70;99.90
18597;DHT22;9428;50.950;6.912;2022-09-16T16:48:53;14.40;99.90
18597;DHT22;9428;50.950;6.912;2022-09-16T16:51:40;13.90;99.90
18597;DHT22;9428;50.950;6.912;2022-09-16T16:54:28;13.70;99.90
18597;DHT22;9428;50.950;6.912;2022-09-16T16:57:15;13.80;99.90
18597;DHT22;9428;50.950;6.912;2022-09-16T17:00:05;13.60;99.90
18597;DHT22;9428;50.950;6.912;2022-09-16T17:02:52;13.60;99.90
18597;DHT22;9428;50.950;6.912;2022-09-16T17:05:39;13.60;99.90
18597;DHT22;9428;50.950;6.912;2022-09-16T17:08:26;13.70;99.90
18597;DHT22;9428;50.950;6.912;2022-09-16T17:11:15;13.60;99.90
18597;DHT22;9428;50.950;6.912;2022-09-16T17:14:05;13.70;99.90
18597;DHT22;9428;50.950;6.912;2022-09-16T17:16:54;13.60;99.90
18597;DHT22;9428;50.950;6.912;2022-09-16T17:19:42;13.60;99.90
18597;DHT22;9428;50.950;6.912;2022-09-16T17:22:29;13.50;99.90
18597;DHT22;9428;50.950;6.912;2022-09-16T17:25:16;13.40;99.90
18597;DHT22;9428;50.950;6.912;2022-09-16T17:28:03;13.70;99.90
18597;DHT22;9428;50.950;6.912;2022-09-16T17:30:50;13.40;99.90
18597;DHT22;9428;50.950;6.912;2022-09-16T17:33:39;13.90;99.90
18597;DHT22;9428;50.950;6.912;2022-09-16T17:36:26;13.50;99.90
18597;DHT22;9428;50.950;6.912;2022-09-16T17:39:15;13.80;99.90
18597;DHT22;9428;50.950;6.912;2022-09-16T17:42:03;13.70;99.90
18597;DHT22;9428;50.950;6.912;2022-09-16T17:44:50;13.30;99.90
18597;DHT22;9428;50.950;6.912;2022-09-16T17:47:38;13.30;99.90
18597;DHT22;9428;50.950;6.912;2022-09-16T17:50:27;13.30;99.90
18597;DHT22;9428;50.950;6.912;2022-09-16T17:53:14;13.20;99.90
18597;DHT22;9428;50.950;6.912;2022-09-16T17:56:02;13.70;99.90
18597;DHT22;9428;50.950;6.912;2022-09-16T17:58:51;13.50;99.90
18597;DHT22;9428;50.950;6.912;2022-09-16T18:01:39;13.70;99.90
18597;DHT22;9428;50.950;6.912;2022-09-16T18:04:26;13.10;99.90
18597;DHT22;9428;50.950;6.912;2022-09-16T18:07:15;13.50;99.90
18597;DHT22;9428;50.950;6.912;2022-09-16T18:10:03;12.90;99.90
18597;DHT22;9428;50.950;6.912;2022-09-16T18:12:50;13.10;99.90
18597;DHT22;9428;50.950;6.912;2022-09-16T18:15:38;13.00;99.90
18597;DHT22;9428;50.950;6.912;2022-09-16T18:18:25;13.00;99.90
18597;DHT22;9428;50.950;6.912;2022-09-16T18:21:13;12.90;99.90
18597;DHT22;9428;50.950;6.912;2022-09-16T18:24:05;13.00;99.90
18597;DHT22;9428;50.950;6.912;2022-09-16T18:26:55;12.90;99.90
18597;DHT22;9428;50.950;6.912;2022-09-16T18:29:43;12.80;99.90
18597;DHT22;9428;50.950;6.912;2022-09-16T18:32:30;13.20;99.90